createdAt,value
2018-11-20T00:00:29.943Z,2.73
2018-11-20T00:02:56.399Z,2.70
2018-11-20T00:05:22.916Z,2.66
2018-11-20T00:07:49.218Z,2.61
2018-11-20T00:10:17.817Z,2.58
2018-11-20T00:12:42.396Z,2.52
2018-11-20T00:15:08.821Z,2.46
2018-11-20T00:17:35.458Z,2.40
2018-11-20T00:20:01.889Z,2.39
2018-11-20T00:22:28.276Z,2.31
2018-11-20T00:24:55.221Z,2.29
2018-11-20T00:27:21.564Z,2.27
2018-11-20T00:29:48.003Z,2.24
2018-11-20T00:32:14.348Z,2.17
2018-11-20T00:34:41.073Z,2.13
2018-11-20T00:37:07.497Z,2.16
2018-11-20T00:39:33.851Z,2.13
2018-11-20T00:42:00.234Z,2.14
2018-11-20T00:44:26.938Z,2.13
2018-11-20T00:46:53.367Z,2.10
2018-11-20T00:49:19.716Z,2.08
2018-11-20T00:51:46.066Z,2.07
2018-11-20T00:54:12.487Z,2.08
2018-11-20T00:56:38.832Z,2.08
2018-11-20T00:59:05.259Z,2.09
2018-11-20T01:01:31.901Z,2.09
2018-11-20T01:03:58.317Z,2.11
2018-11-20T01:06:24.746Z,2.16
2018-11-20T01:08:51.167Z,2.14
2018-11-20T01:11:17.818Z,2.15
2018-11-20T01:13:44.231Z,2.15
2018-11-20T01:16:10.664Z,2.22
2018-11-20T01:18:37.514Z,2.20
2018-11-20T01:21:04.160Z,2.19
2018-11-20T01:23:30.595Z,2.20
2018-11-20T01:25:57.020Z,2.20
2018-11-20T01:28:23.657Z,2.19
2018-11-20T01:30:50.244Z,2.26
2018-11-20T01:33:16.677Z,2.22
2018-11-20T01:35:43.415Z,2.24
2018-11-20T01:38:09.770Z,2.27
2018-11-20T01:40:36.187Z,2.24
2018-11-20T01:43:02.609Z,2.26
2018-11-20T01:45:29.257Z,2.29
2018-11-20T01:47:55.697Z,2.31
2018-11-20T01:50:22.035Z,2.30
2018-11-20T01:52:48.745Z,2.30
2018-11-20T01:55:15.172Z,2.28
2018-11-20T01:57:41.613Z,2.32
2018-11-20T02:00:07.953Z,2.30
2018-11-20T02:02:34.584Z,2.33
2018-11-20T02:05:01.003Z,2.33
2018-11-20T02:07:27.785Z,2.33
2018-11-20T02:09:54.216Z,2.34
2018-11-20T02:12:20.855Z,2.37
2018-11-20T02:14:47.208Z,2.36
2018-11-20T02:17:13.652Z,2.42
2018-11-20T02:19:41.520Z,2.36
2018-11-20T02:22:07.871Z,2.37
2018-11-20T02:24:34.294Z,2.42
2018-11-20T02:27:00.941Z,2.44
2018-11-20T02:29:27.380Z,2.42
2018-11-20T02:31:53.659Z,2.44
2018-11-20T02:34:20.152Z,2.41
2018-11-20T02:36:46.861Z,2.46
2018-11-20T02:39:13.297Z,2.48
2018-11-20T02:41:39.642Z,2.47
2018-11-20T02:44:05.987Z,2.48
2018-11-20T02:46:32.654Z,2.48
2018-11-20T02:48:59.062Z,2.45
2018-11-20T02:51:25.569Z,2.51
2018-11-20T02:53:52.129Z,2.47
2018-11-20T02:56:18.553Z,2.51
2018-11-20T02:58:44.909Z,2.52
2018-11-20T03:01:11.327Z,2.49
2018-11-20T03:03:37.994Z,2.50
2018-11-20T03:06:04.395Z,2.56
2018-11-20T03:08:30.745Z,2.51
2018-11-20T03:10:57.188Z,2.55
2018-11-20T03:13:23.816Z,2.55
2018-11-20T03:15:50.090Z,2.56
2018-11-20T03:18:16.576Z,2.55
2018-11-20T03:20:42.931Z,2.53
2018-11-20T03:23:09.659Z,2.60
2018-11-20T03:25:36.007Z,2.62
2018-11-20T03:28:02.347Z,2.50
2018-11-20T03:30:29.043Z,2.54
2018-11-20T03:32:55.468Z,2.63
2018-11-20T03:35:21.893Z,2.56
2018-11-20T03:37:48.239Z,2.56
2018-11-20T03:40:14.935Z,2.57
2018-11-20T03:42:41.294Z,2.53
2018-11-20T03:45:07.968Z,2.56
2018-11-20T03:47:37.171Z,2.55
2018-11-20T03:50:03.512Z,2.52
2018-11-20T03:52:29.980Z,2.49
2018-11-20T03:54:56.761Z,2.55
2018-11-20T03:57:23.196Z,2.54
2018-11-20T03:59:49.470Z,2.52
2018-11-20T04:02:15.877Z,2.54
2018-11-20T04:04:42.589Z,2.52
2018-11-20T04:07:09.028Z,2.51
2018-11-20T04:09:35.310Z,2.57
2018-11-20T04:12:01.798Z,2.56
2018-11-20T04:14:28.607Z,2.60
2018-11-20T04:16:55.052Z,2.61
2018-11-20T04:19:22.670Z,2.61
2018-11-20T04:21:49.388Z,2.58
2018-11-20T04:24:15.668Z,2.57
2018-11-20T04:26:42.164Z,2.62
2018-11-20T04:29:08.904Z,2.67
2018-11-20T04:31:35.333Z,2.64
2018-11-20T04:34:01.685Z,2.60
2018-11-20T04:36:28.125Z,2.57
2018-11-20T04:38:54.771Z,2.54
2018-11-20T04:41:21.283Z,2.53
2018-11-20T04:43:47.616Z,2.54
2018-11-20T04:46:14.040Z,2.60
2018-11-20T04:48:41.104Z,2.60
2018-11-20T04:51:07.525Z,2.57
2018-11-20T04:53:34.165Z,2.60
2018-11-20T04:56:00.588Z,2.62
2018-11-20T04:58:27.028Z,2.54
2018-11-20T05:00:53.858Z,2.55
2018-11-20T05:03:21.664Z,2.60
2018-11-20T05:05:48.060Z,2.56
2018-11-20T05:08:14.403Z,2.55
2018-11-20T05:10:41.336Z,2.56
2018-11-20T05:13:07.688Z,2.57
2018-11-20T05:15:34.206Z,2.61
2018-11-20T05:18:00.627Z,2.59
2018-11-20T05:20:27.555Z,2.60
2018-11-20T05:23:00.068Z,2.60
2018-11-20T05:25:20.336Z,2.59
2018-11-20T05:27:47.218Z,2.59
2018-11-20T05:30:13.714Z,2.56
2018-11-20T05:32:40.091Z,2.53
2018-11-20T05:35:06.982Z,2.56
2018-11-20T05:37:33.408Z,2.56
2018-11-20T05:40:02.213Z,2.60
2018-11-20T05:42:32.047Z,2.63
2018-11-20T05:45:00.205Z,2.61
2018-11-20T05:47:26.721Z,2.58
2018-11-20T05:49:56.162Z,2.52
2018-11-20T05:52:22.583Z,2.54
2018-11-20T05:54:49.005Z,2.58
2018-11-20T05:57:15.284Z,2.59
2018-11-20T05:59:41.846Z,2.56
2018-11-20T06:02:08.626Z,2.55
2018-11-20T06:04:35.119Z,2.57
2018-11-20T06:07:01.553Z,2.51
2018-11-20T06:09:28.271Z,2.56
2018-11-20T06:11:54.723Z,2.61
2018-11-20T06:14:21.237Z,2.61
2018-11-20T06:16:47.877Z,2.62
2018-11-20T06:19:14.301Z,2.62
2018-11-20T06:21:40.654Z,2.64
2018-11-20T06:24:07.376Z,2.63
2018-11-20T06:26:33.736Z,2.67
2018-11-20T06:29:00.175Z,2.64
2018-11-20T06:31:26.868Z,2.67
2018-11-20T06:33:53.222Z,2.67
2018-11-20T06:36:20.070Z,2.69
2018-11-20T06:38:47.709Z,2.69
2018-11-20T06:41:17.483Z,2.69
2018-11-20T06:43:43.772Z,2.69
2018-11-20T06:46:10.501Z,2.66
2018-11-20T06:48:36.859Z,2.69
2018-11-20T06:51:03.208Z,2.68
2018-11-20T06:53:30.211Z,2.74
2018-11-20T06:55:56.546Z,2.73
2018-11-20T06:58:24.295Z,2.72
2018-11-20T07:00:49.599Z,2.71
2018-11-20T07:03:16.028Z,2.75
2018-11-20T07:05:42.376Z,2.71
2018-11-20T07:08:09.183Z,2.69
2018-11-20T07:10:38.028Z,2.77
2018-11-20T07:13:04.834Z,2.75
2018-11-20T07:15:31.953Z,2.77
2018-11-20T07:17:58.153Z,2.85
2018-11-20T07:20:24.580Z,2.84
2018-11-20T07:22:51.219Z,2.79
2018-11-20T07:25:17.659Z,2.78
2018-11-20T07:27:44.002Z,2.80
2018-11-20T07:30:10.680Z,2.81
2018-11-20T07:32:37.092Z,2.82
2018-11-20T07:35:06.005Z,2.87
2018-11-20T07:37:32.714Z,2.85
2018-11-20T07:39:59.147Z,2.87
2018-11-20T07:42:25.507Z,2.88
2018-11-20T07:44:52.168Z,2.83
2018-11-20T07:47:18.606Z,2.85
2018-11-20T07:49:45.453Z,2.87
2018-11-20T07:52:12.115Z,2.91
2018-11-20T07:54:38.566Z,2.97
2018-11-20T07:57:04.927Z,2.86
2018-11-20T07:59:31.588Z,2.88
2018-11-20T08:01:58.030Z,2.90
2018-11-20T08:04:24.433Z,2.91
2018-11-20T08:06:51.159Z,2.97
2018-11-20T08:09:18.031Z,2.97
2018-11-20T08:11:44.478Z,3.01
2018-11-20T08:14:11.175Z,3.02
2018-11-20T08:16:37.720Z,3.04
2018-11-20T08:19:04.013Z,3.03
2018-11-20T08:21:30.742Z,3.05
2018-11-20T08:23:57.564Z,3.04
2018-11-20T08:26:24.317Z,3.02
2018-11-20T08:28:50.454Z,3.03
2018-11-20T08:31:16.850Z,3.05
2018-11-20T08:33:43.532Z,3.10
2018-11-20T08:36:09.945Z,3.11
2018-11-20T08:38:36.286Z,3.09
2018-11-20T08:41:02.940Z,3.10
2018-11-20T08:43:29.364Z,3.05
2018-11-20T08:45:56.146Z,3.08
2018-11-20T08:48:27.334Z,3.19
2018-11-20T08:50:49.302Z,3.22
2018-11-20T08:53:18.074Z,3.21
2018-11-20T08:55:44.833Z,3.23
2018-11-20T08:58:11.159Z,3.25
2018-11-20T09:03:04.379Z,3.36
2018-11-20T09:05:30.742Z,3.35
2018-11-20T09:07:57.169Z,3.36
2018-11-20T09:10:23.911Z,3.37
2018-11-20T09:12:50.251Z,3.37
2018-11-20T09:15:16.712Z,3.31
2018-11-20T09:17:43.463Z,3.39
2018-11-20T09:20:09.798Z,3.41
2018-11-20T09:22:36.193Z,3.49
2018-11-20T09:25:02.915Z,3.56
2018-11-20T09:27:29.260Z,3.48
2018-11-20T09:29:55.725Z,3.44
2018-11-20T09:32:22.435Z,3.45
2018-11-20T09:34:48.863Z,3.47
2018-11-20T09:37:15.357Z,3.48
2018-11-20T09:39:41.957Z,3.51
2018-11-20T09:42:08.313Z,3.55
2018-11-20T09:47:46.163Z,3.59
2018-11-20T09:50:12.590Z,3.57
2018-11-20T09:52:39.999Z,3.58
2018-11-20T09:55:07.411Z,3.56
2018-11-20T09:57:33.777Z,3.53
2018-11-20T10:02:28.545Z,3.67
2018-11-20T10:04:54.911Z,3.71
2018-11-20T10:07:21.447Z,3.77
2018-11-20T10:09:48.936Z,3.73
2018-11-20T10:12:15.532Z,3.71
2018-11-20T10:14:42.287Z,3.84
2018-11-20T10:17:10.328Z,3.93
2018-11-20T10:19:35.835Z,3.99
2018-11-20T10:22:02.508Z,3.98
2018-11-20T10:24:29.241Z,4.05
2018-11-20T10:26:55.669Z,4.06
2018-11-20T10:29:23.765Z,4.18
2018-11-20T10:31:50.777Z,4.17
2018-11-20T10:34:23.021Z,4.35
2018-11-20T10:36:49.445Z,4.39
2018-11-20T10:39:16.328Z,4.44
2018-11-20T10:41:45.114Z,4.54
2018-11-20T10:44:14.217Z,4.56
2018-11-20T10:46:40.726Z,4.44
2018-11-20T10:49:15.241Z,4.21
2018-11-20T10:51:42.107Z,4.03
2018-11-20T10:54:10.643Z,3.93
2018-11-20T10:56:37.067Z,3.91
2018-11-20T10:59:03.861Z,3.99
2018-11-20T11:02:02.432Z,4.02
2018-11-20T11:04:07.173Z,4.07
2018-11-20T11:06:33.642Z,4.14
2018-11-20T11:09:00.079Z,4.15
2018-11-20T11:11:32.836Z,4.08
2018-11-20T11:13:59.348Z,4.09
2018-11-20T11:16:25.710Z,4.08
2018-11-20T11:18:59.196Z,4.06
2018-11-20T11:21:21.523Z,4.02
2018-11-20T11:23:47.944Z,4.08
2018-11-20T11:26:14.784Z,4.12
2018-11-20T11:28:41.787Z,4.20
2018-11-20T11:31:08.262Z,4.22
2018-11-20T11:33:35.121Z,4.24
2018-11-20T11:36:03.036Z,4.30
2018-11-20T11:38:29.407Z,4.23
2018-11-20T11:40:56.467Z,4.27
2018-11-20T11:43:26.325Z,4.27
2018-11-20T11:45:57.109Z,4.30
2018-11-20T11:48:24.052Z,4.24
2018-11-20T11:50:50.486Z,4.23
2018-11-20T11:53:17.518Z,4.28
2018-11-20T11:55:44.800Z,4.35
2018-11-20T11:58:11.593Z,4.38
2018-11-20T12:00:38.046Z,4.42
2018-11-20T12:05:30.434Z,4.31
2018-11-20T12:07:56.778Z,4.26
2018-11-20T12:10:28.921Z,4.20
2018-11-20T12:12:53.809Z,4.09
2018-11-20T12:15:20.242Z,4.15
2018-11-20T12:17:50.293Z,4.17
2018-11-20T12:20:16.103Z,4.21
2018-11-20T12:22:42.913Z,4.26
2018-11-20T12:25:09.339Z,4.10
2018-11-20T12:27:36.174Z,4.02
2018-11-20T12:30:04.843Z,3.98
2018-11-20T12:32:31.269Z,3.97
2018-11-20T12:34:57.617Z,3.93
2018-11-20T12:37:24.544Z,3.98
2018-11-20T12:39:50.823Z,3.99
2018-11-20T12:42:17.246Z,4.01
2018-11-20T12:44:46.932Z,4.04
2018-11-20T12:47:15.218Z,4.03
2018-11-20T12:49:39.809Z,3.97
2018-11-20T12:52:06.537Z,3.95
2018-11-20T12:54:32.883Z,4.02
2018-11-20T12:57:02.473Z,4.05
2018-11-20T12:59:34.243Z,4.03
2018-11-20T13:02:01.917Z,4.07
2018-11-20T13:04:32.371Z,4.03
2018-11-20T13:07:00.656Z,3.95
2018-11-20T13:09:26.252Z,3.98
2018-11-20T13:11:52.606Z,3.97
2018-11-20T13:14:22.329Z,3.90
2018-11-20T13:16:46.043Z,3.94
2018-11-20T13:19:14.173Z,3.90
2018-11-20T13:21:44.714Z,3.88
2018-11-20T13:24:09.589Z,3.87
2018-11-20T13:26:34.138Z,3.88
2018-11-20T13:29:03.128Z,3.88
2018-11-20T13:31:27.486Z,3.87
2018-11-20T13:33:54.397Z,3.90
2018-11-20T13:36:23.996Z,3.86
2018-11-20T13:38:52.033Z,3.85
2018-11-20T13:41:16.725Z,3.89
2018-11-20T13:43:43.607Z,3.91
2018-11-20T13:46:09.952Z,3.95
2018-11-20T13:48:36.369Z,4.03
2018-11-20T13:51:03.105Z,4.12
2018-11-20T13:53:29.532Z,4.16
2018-11-20T13:55:55.967Z,4.11
2018-11-20T13:58:22.886Z,4.13
2018-11-20T14:00:49.258Z,4.09
2018-11-20T14:03:15.707Z,4.14
2018-11-20T14:05:44.135Z,4.14
2018-11-20T14:08:10.580Z,4.16
2018-11-20T14:10:39.041Z,4.15
2018-11-20T14:13:07.761Z,4.15
2018-11-20T14:15:34.242Z,4.12
2018-11-20T14:18:00.626Z,4.13
2018-11-20T14:20:27.452Z,4.09
2018-11-20T14:22:53.827Z,4.02
2018-11-20T14:25:20.319Z,3.96
2018-11-20T14:27:47.090Z,3.86
2018-11-20T14:30:13.550Z,3.87
2018-11-20T14:32:40.431Z,3.83
2018-11-20T14:35:07.316Z,3.85
2018-11-20T14:37:33.734Z,3.84
2018-11-20T14:40:00.100Z,3.81
2018-11-20T14:42:26.943Z,3.78
2018-11-20T14:44:53.349Z,3.79
2018-11-20T14:47:20.951Z,3.69
2018-11-20T14:49:47.385Z,3.63
2018-11-20T14:52:13.752Z,3.59
2018-11-20T14:54:40.926Z,3.53
2018-11-20T14:57:07.391Z,3.40
2018-11-20T14:59:33.830Z,3.31
2018-11-20T15:02:04.172Z,3.30
2018-11-20T15:04:29.782Z,3.30
2018-11-20T15:06:56.142Z,3.18
2018-11-20T15:09:22.885Z,3.15
2018-11-20T15:11:51.105Z,3.15
2018-11-20T15:14:16.402Z,3.10
2018-11-20T15:16:43.437Z,2.98
2018-11-20T15:19:09.745Z,2.84
2018-11-20T15:21:36.235Z,2.75
2018-11-20T15:24:02.882Z,2.66
2018-11-20T15:26:29.326Z,2.55
2018-11-20T15:28:55.776Z,2.49
2018-11-20T15:31:23.493Z,2.45
2018-11-20T15:33:49.844Z,2.37
2018-11-20T15:36:16.277Z,2.34
2018-11-20T15:38:42.938Z,2.25
2018-11-20T15:41:09.769Z,2.25
2018-11-20T15:43:39.002Z,2.18
2018-11-20T15:46:07.440Z,2.12
2018-11-20T15:48:39.410Z,2.09
2018-11-20T15:51:05.982Z,2.04
2018-11-20T15:53:34.059Z,2.04
2018-11-20T15:56:01.704Z,2.00
2018-11-20T15:58:32.922Z,2.04
2018-11-20T16:00:59.291Z,2.06
2018-11-20T16:03:26.231Z,2.01
2018-11-20T16:05:54.542Z,1.98
2018-11-20T16:08:21.022Z,1.97
2018-11-20T16:10:47.472Z,1.99
2018-11-20T16:13:16.693Z,1.99
2018-11-20T16:15:52.212Z,2.00
2018-11-20T16:18:13.291Z,1.98
2018-11-20T16:20:42.287Z,1.96
2018-11-20T16:23:09.838Z,1.94
2018-11-20T16:25:36.881Z,1.93
2018-11-20T16:28:05.337Z,1.92
2018-11-20T16:30:31.775Z,1.96
2018-11-20T16:32:58.619Z,1.94
2018-11-20T16:35:25.293Z,1.91
2018-11-20T16:37:57.295Z,1.92
2018-11-20T16:40:23.776Z,1.96
2018-11-20T16:42:50.452Z,1.97
2018-11-20T16:45:16.805Z,1.96
2018-11-20T16:47:43.241Z,1.99
2018-11-20T16:50:10.033Z,2.00
2018-11-20T16:52:38.100Z,2.01
2018-11-20T16:57:44.752Z,2.08
2018-11-20T17:00:11.340Z,2.08
2018-11-20T17:02:37.728Z,2.09
2018-11-20T17:05:07.260Z,2.08
2018-11-20T17:07:34.767Z,2.07
2018-11-20T17:10:00.270Z,2.11
2018-11-20T17:12:29.787Z,2.06
2018-11-20T17:17:27.490Z,2.08
2018-11-20T17:19:54.320Z,2.12
2018-11-20T17:22:20.682Z,2.16
2018-11-20T17:24:47.152Z,2.17
2018-11-20T17:27:13.926Z,2.18
2018-11-20T17:29:40.413Z,2.14
2018-11-20T17:32:08.776Z,2.11
2018-11-20T17:34:33.700Z,2.13
2018-11-20T17:39:38.838Z,2.16
2018-11-20T17:42:07.327Z,2.17
2018-11-20T17:44:33.682Z,2.15
2018-11-20T17:47:03.046Z,2.14
2018-11-20T17:49:31.273Z,2.10
2018-11-20T17:52:04.981Z,2.09
2018-11-20T17:54:33.481Z,2.03
2018-11-20T17:57:03.386Z,2.02
2018-11-20T17:59:30.417Z,1.99
2018-11-20T18:01:58.657Z,2.02
2018-11-20T18:04:30.574Z,1.99
2018-11-20T18:06:59.775Z,2.02
2018-11-20T18:09:26.615Z,2.09
2018-11-20T18:11:53.694Z,2.05
2018-11-20T18:14:19.982Z,2.05
2018-11-20T18:16:46.761Z,2.11
2018-11-20T18:19:13.110Z,2.11
2018-11-20T18:21:40.981Z,2.16
2018-11-20T18:24:07.935Z,2.24
2018-11-20T18:26:34.369Z,2.26
2018-11-20T18:29:00.791Z,2.31
2018-11-20T18:31:29.473Z,2.32
2018-11-20T18:33:56.478Z,2.37
2018-11-20T18:36:24.955Z,2.40
2018-11-20T18:38:51.757Z,2.46
2018-11-20T18:41:18.182Z,2.48
2018-11-20T18:43:44.524Z,2.46
2018-11-20T18:46:11.349Z,2.46
2018-11-20T18:48:41.060Z,2.46
2018-11-20T18:51:06.204Z,2.52
2018-11-20T18:53:33.095Z,2.51
2018-11-20T18:55:59.623Z,2.51
2018-11-20T18:58:25.973Z,2.52
2018-11-20T19:00:55.142Z,2.42
2018-11-20T19:03:21.503Z,2.38
2018-11-20T19:05:47.875Z,2.28
2018-11-20T19:08:14.754Z,2.25
2018-11-20T19:10:41.174Z,2.17
2018-11-20T19:13:07.625Z,2.10
2018-11-20T19:15:37.427Z,2.07
2018-11-20T19:18:02.544Z,1.98
2018-11-20T19:20:29.165Z,1.94
2018-11-20T19:22:56.831Z,1.93
2018-11-20T19:25:23.271Z,1.85
2018-11-20T19:27:49.688Z,1.79
2018-11-20T19:30:18.732Z,1.77
2018-11-20T19:32:45.448Z,1.71
2018-11-20T19:35:13.030Z,1.71
2018-11-20T19:37:41.622Z,1.67
2018-11-20T19:40:09.045Z,1.65
2018-11-20T19:42:36.465Z,1.63
2018-11-20T19:45:02.521Z,1.66
2018-11-20T19:47:30.011Z,1.65
2018-11-20T19:49:55.299Z,1.74
2018-11-20T19:52:24.971Z,1.88
2018-11-20T19:54:51.308Z,2.02
2018-11-20T19:57:17.658Z,2.09
2018-11-20T19:59:44.465Z,2.15
2018-11-20T20:02:10.793Z,2.14
2018-11-20T20:04:37.235Z,2.07
2018-11-20T20:07:04.071Z,2.02
2018-11-20T20:09:33.649Z,1.96
2018-11-20T20:11:59.969Z,1.88
2018-11-20T20:14:29.383Z,1.83
2018-11-20T20:16:55.733Z,1.74
2018-11-20T20:19:32.633Z,1.75
2018-11-20T20:22:02.745Z,1.79
2018-11-20T20:24:29.585Z,1.80
2018-11-20T20:26:56.143Z,1.81
2018-11-20T20:29:32.259Z,1.72
2018-11-20T20:34:37.643Z,1.69
2018-11-20T20:37:09.054Z,1.73
2018-11-20T20:39:36.464Z,1.74
2018-11-20T20:42:03.193Z,1.83
2018-11-20T20:44:29.626Z,1.84
2018-11-20T20:46:55.976Z,1.71
2018-11-20T20:49:22.756Z,1.65
2018-11-20T20:51:49.177Z,1.73
2018-11-20T20:54:15.712Z,1.74
2018-11-20T20:56:42.489Z,1.82
2018-11-20T20:59:08.841Z,2.04
2018-11-20T21:01:35.190Z,2.10
2018-11-20T21:04:01.953Z,2.05
2018-11-20T21:06:28.380Z,1.97
2018-11-20T21:08:54.824Z,1.91
2018-11-20T21:11:21.662Z,1.88
2018-11-20T21:13:48.004Z,1.87
2018-11-20T21:16:14.426Z,1.95
2018-11-20T21:18:41.111Z,2.03
2018-11-20T21:21:07.535Z,2.08
2018-11-20T21:23:33.874Z,2.11
2018-11-20T21:26:02.099Z,2.09
2018-11-20T21:28:32.932Z,2.11
2018-11-20T21:31:02.196Z,2.13
2018-11-20T21:33:28.971Z,2.11
2018-11-20T21:35:55.746Z,2.04
2018-11-20T21:38:22.179Z,1.99
2018-11-20T21:40:48.914Z,1.94
2018-11-20T21:43:15.432Z,1.93
2018-11-20T21:45:41.865Z,1.92
2018-11-20T21:48:08.714Z,1.93
2018-11-20T21:50:37.206Z,1.91
2018-11-20T21:53:04.856Z,1.97
2018-11-20T21:55:31.695Z,1.93
2018-11-20T21:57:58.122Z,1.90
2018-11-20T22:00:24.843Z,1.91
2018-11-20T22:02:51.607Z,1.86
2018-11-20T22:05:21.672Z,1.76
2018-11-20T22:07:47.990Z,1.65
2018-11-20T22:10:16.861Z,1.57
2018-11-20T22:12:43.312Z,1.64
2018-11-20T22:15:09.713Z,1.64
2018-11-20T22:17:36.449Z,1.55
2018-11-20T22:20:02.877Z,1.46
2018-11-20T22:22:29.339Z,1.47
2018-11-20T22:24:56.149Z,1.41
2018-11-20T22:27:23.144Z,1.57
2018-11-20T22:29:49.488Z,1.57
2018-11-20T22:32:16.337Z,1.53
2018-11-20T22:34:42.690Z,1.48
2018-11-20T22:37:10.319Z,1.52
2018-11-20T22:39:35.994Z,1.53
2018-11-20T22:42:02.340Z,1.57
2018-11-20T22:44:28.751Z,1.89
2018-11-20T22:46:55.480Z,2.04
2018-11-20T22:49:21.911Z,2.03
2018-11-20T22:51:48.256Z,2.04
2018-11-20T22:54:14.974Z,1.98
2018-11-20T22:56:41.430Z,2.11
2018-11-20T22:59:08.298Z,2.26
2018-11-20T23:01:35.110Z,2.25
2018-11-20T23:04:01.449Z,2.32
2018-11-20T23:06:27.881Z,2.35
2018-11-20T23:08:55.904Z,2.46
2018-11-20T23:11:22.250Z,2.49
2018-11-20T23:13:50.763Z,2.54
2018-11-20T23:16:17.630Z,2.62
2018-11-20T23:18:44.404Z,2.56
2018-11-20T23:21:10.752Z,2.61
2018-11-20T23:23:37.472Z,2.70
2018-11-20T23:26:04.153Z,2.77
2018-11-20T23:28:30.565Z,2.86
2018-11-20T23:30:57.378Z,2.86
2018-11-20T23:33:24.159Z,2.80
2018-11-20T23:35:50.657Z,2.77
2018-11-20T23:38:17.077Z,2.76
2018-11-20T23:40:43.887Z,2.77
2018-11-20T23:43:10.237Z,2.73
2018-11-20T23:45:36.656Z,2.69
2018-11-20T23:48:03.024Z,2.70
2018-11-20T23:50:29.840Z,2.72
2018-11-20T23:52:56.186Z,2.68
2018-11-20T23:55:22.540Z,2.56
2018-11-20T23:57:49.336Z,2.49
